Home > Products > Valid Products > MTR

000
SAUS43 KDLH 080557
MTRGNA
METAR KGNA 080556Z AUTO 34012G16KT M07/M11 A2963 RMK AO1 SLP047
60002 T10671106 11011 21067 400171067 53017





000
SAUS43 KDLH 080457
MTRGNA
METAR KGNA 080456Z AUTO 34008G18KT M06/M09 A2961 RMK AO1 SLP038
T10561089





000
SAUS43 KDLH 080457
MTRGNA
METAR KGNA 080456Z AUTO 34008G18KT M06/M09 A2961 RMK AO1 SLP038
T10561089





000
SAUS43 KDLH 080357
MTRGNA
METAR KGNA 080356Z AUTO VRB05KT M05/M08 A2960 RMK AO1 SLP035 P0001
T10501083





000
SAUS43 KDLH 080357
MTRGNA
METAR KGNA 080356Z AUTO VRB05KT M05/M08 A2960 RMK AO1 SLP035 P0001
T10501083





000
SAUS43 KDLH 080258
MTRGNA
METAR KGNA 080256Z AUTO VRB06KT M04/M07 A2958 RMK AO1 SLP028 P0001
60001 T10391067 53013





000
SAUS43 KDLH 080258
MTRGNA
METAR KGNA 080256Z AUTO VRB06KT M04/M07 A2958 RMK AO1 SLP028 P0001
60001 T10391067 53013





000
SAUS43 KDLH 080158
MTRGNA
METAR KGNA 080156Z AUTO VRB05KT M03/M06 A2957 RMK AO1 SLP024
T10281061





000
SAUS43 KDLH 080057
MTRGNA
METAR KGNA 080056Z AUTO 05007G16KT M02/M06 A2955 RMK AO1 SLP018
T10221056





000
SAUS43 KDLH 080057
MTRGNA
METAR KGNA 080056Z AUTO 05007G16KT M02/M06 A2955 RMK AO1 SLP018
T10221056





000
SAUS43 KDLH 072357
MTRGNA
METAR KGNA 072356Z AUTO 04009G18KT M01/M04 A2954 RMK AO1 SLP014
60009 T10111039 10011 21011 53024





000
SAUS43 KDLH 072357
MTRGNA
METAR KGNA 072356Z AUTO 04009G18KT M01/M04 A2954 RMK AO1 SLP014
60009 T10111039 10011 21011 53024





000
SAUS43 KDLH 072257
MTRGNA
METAR KGNA 072256Z AUTO 05008KT 00/M02 A2951 RMK AO1 SLP003 P0002
T00001017





000
SAUS43 KDLH 072257
MTRGNA
METAR KGNA 072256Z AUTO 05008KT 00/M02 A2951 RMK AO1 SLP003 P0002
T00001017





000
SAUS43 KDLH 072157
MTRGNA
METAR KGNA 072156Z AUTO 06009KT 01/M01 A2949 RMK AO1 SLP994 P0001
T00061006





000
SAUS43 KDLH 072058
MTRGNA
METAR KGNA 072056Z AUTO 05007KT 01/M01 A2947 RMK AO1 SLP990 P0003
60006 T00061006 53002





000
SAUS43 KDLH 071957
MTRGNA
METAR KGNA 071956Z AUTO 06004KT 01/M01 A2946 RMK AO1 SLP985 P0002
T00061006





000
SAUS43 KDLH 071858
MTRGNA
METAR KGNA 071856Z AUTO 15003KT 01/00 A2945 RMK AO1 SLP983 P0001
T00110000





000
SAUS43 KDLH 071757
MTRGNA
METAR KGNA 071756Z AUTO 17007KT 01/00 A2946 RMK AO1 SLP987 P0001
60002 T00110000 10017 20011 58005





000
SAUS43 KDLH 071757
MTRGNA
METAR KGNA 071756Z AUTO 17007KT 01/00 A2946 RMK AO1 SLP987 P0001
60002 T00110000 10017 20011 58005





000
SAUS43 KDLH 071657
MTRGNA
METAR KGNA 071656Z AUTO 19005KT 01/00 A2948 RMK AO1 SLP991 T00110000





000
SAUS43 KDLH 071657
MTRGNA
METAR KGNA 071656Z AUTO 19005KT 01/00 A2948 RMK AO1 SLP991 T00110000





000
SAUS43 KDLH 071557
MTRGNA
METAR KGNA 071556Z AUTO 18009KT 01/M01 A2948 RMK AO1 SLP991 P0001
T00111006





000
SAUS43 KDLH 071457
MTRGNA
METAR KGNA 071456Z AUTO 18010KT 02/M01 A2948 RMK AO1 SLP992
T00171006 58011





000
SAUS43 KDLH 071357
MTRGNA
METAR KGNA 071356Z AUTO 19011KT 02/M01 A2949 RMK AO1 SLP997
T00171006





000
SAUS43 KDLH 071257
MTRGNA
METAR KGNA 071256Z AUTO 19012KT 02/M01 A2950 RMK AO1 SLP000
T00171006





000
SAUS43 KDLH 071158
MTRGNA
METAR KGNA 071156Z AUTO 20009KT 02/00 A2951 RMK AO1 SLP004 60007
70024 T00170000 10017 20006 56018





000
SAUS43 KDLH 071058
MTRGNA
METAR KGNA 071056Z AUTO 20012KT 01/00 A2953 RMK AO1 SLP010 P0001
T00110000





000
SAUS43 KDLH 070957
MTRGNA
METAR KGNA 070956Z AUTO 19011KT 01/00 A2954 RMK AO1 SLP014 P0001
T00110000





000
SAUS43 KDLH 070857
MTRGNA
METAR KGNA 070856Z AUTO 19009KT 01/00 A2956 RMK AO1 SLP022 P0002
60005 T00060000 58030





000
SAUS43 KDLH 070757
MTRGNA
METAR KGNA 070756Z AUTO 19012KT 01/M01 A2960 RMK AO1 SLP034 P0002
T00061006





000
SAUS43 KDLH 070658
MTRGNA
METAR KGNA 070656Z AUTO 19012KT 01/M01 A2962 RMK AO1 SLP042 P0001
T00061006





000
SAUS43 KDLH 070658
MTRGNA
METAR KGNA 070656Z AUTO 19012KT 01/M01 A2962 RMK AO1 SLP042 P0001
T00061006





000
SAUS43 KDLH 070557
MTRGNA
METAR KGNA 070556Z AUTO 19012KT 01/M01 A2965 RMK AO1 SLP053 P0003
60017 T00061006 10006 21017 400061072 58032





000
SAUS43 KDLH 070457
MTRGNA
METAR KGNA 070456Z AUTO 18011KT 01/M01 A2969 RMK AO1 SLP064 P0004
T00061006





000
SAUS43 KDLH 070457
MTRGNA
METAR KGNA 070456Z AUTO 18011KT 01/M01 A2969 RMK AO1 SLP064 P0004
T00061006





000
SAUS43 KDLH 070357
MTRGNA
METAR KGNA 070356Z AUTO 17007KT 01/M01 A2972 RMK AO1 SLP075 P0005
T00061006





000
SAUS43 KDLH 070257
MTRGNA
METAR KGNA 070256Z AUTO 17010KT 01/M01 A2975 RMK AO1 SLP087 P0004
60005 T00061006 58030





000
SAUS43 KDLH 070157
MTRGNA
METAR KGNA 070156Z AUTO 06008KT 00/M02 A2978 RMK AO1 SLP099 P0001
T00001017





000
SAUS43 KDLH 070157
MTRGNA
METAR KGNA 070156Z AUTO 06008KT 00/M02 A2978 RMK AO1 SLP099 P0001
T00001017





000
SAUS43 KDLH 070057
MTRGNA
METAR KGNA 070056Z AUTO 05006KT M01/M04 A2981 RMK AO1 SLP108
T10061044





000
SAUS43 KDLH 070057
MTRGNA
METAR KGNA 070056Z AUTO 05006KT M01/M04 A2981 RMK AO1 SLP108
T10061044





000
SAUS43 KDLH 062357
MTRGNA
METAR KGNA 062356Z AUTO 02004KT M02/M05 A2984 RMK AO1 SLP118
T10171050 11011 21017 58019





000
SAUS43 KDLH 062357
MTRGNA
METAR KGNA 062356Z AUTO 02004KT M02/M05 A2984 RMK AO1 SLP118
T10171050 11011 21017 58019





000
SAUS43 KDLH 062257
MTRGNA
METAR KGNA 062256Z AUTO 12003KT M01/M05 A2987 RMK AO1 SLP127
T10111050





000
SAUS43 KDLH 062257
MTRGNA
METAR KGNA 062256Z AUTO 12003KT M01/M05 A2987 RMK AO1 SLP127
T10111050





000
SAUS43 KDLH 062158
MTRGNA
METAR KGNA 062156Z AUTO 17007KT M01/M05 A2989 RMK AO1 SLP133
T10111050





000
SAUS43 KDLH 062158
MTRGNA
METAR KGNA 062156Z AUTO 17007KT M01/M05 A2989 RMK AO1 SLP133
T10111050





000
SAUS43 KDLH 062057
MTRGNA
METAR KGNA 062056Z AUTO 19007KT M01/M04 A2990 RMK AO1 SLP136
T10111044 58026





000
SAUS43 KDLH 061957
MTRGNA
METAR KGNA 061956Z AUTO 24004KT M01/M04 A2992 RMK AO1 SLP146
T10111044





000
SAUS43 KDLH 061857
MTRGNA
METAR KGNA 061856Z AUTO 26007KT M02/M04 A2995 RMK AO1 SLP157
T10171044





000
SAUS43 KDLH 061857
MTRGNA
METAR KGNA 061856Z AUTO 26007KT M02/M04 A2995 RMK AO1 SLP157
T10171044





000
SAUS43 KDLH 061757
MTRGNA
METAR KGNA 061756Z AUTO 24008KT M02/M05 A2997 RMK AO1 SLP164
T10171050 11011 21072 58017





000
SAUS43 KDLH 061757
MTRGNA
METAR KGNA 061756Z AUTO 24008KT M02/M05 A2997 RMK AO1 SLP164
T10171050 11011 21072 58017





000
SAUS43 KDLH 061657
MTRGNA
METAR KGNA 061656Z AUTO 25005KT M02/M06 A3000 RMK AO1 SLP173
T10171061





000
SAUS43 KDLH 061657
MTRGNA
METAR KGNA 061656Z AUTO 25005KT M02/M06 A3000 RMK AO1 SLP173
T10171061





000
SAUS43 KDLH 061557
MTRGNA
METAR KGNA 061556Z AUTO 31003KT M03/M08 A3001 RMK AO1 SLP178
T10281083





000
SAUS43 KDLH 061457
MTRGNA
METAR KGNA 061456Z AUTO 29003KT M04/M08 A3003 RMK AO1 SLP182
T10391083 50001





000
SAUS43 KDLH 061357
MTRGNA
METAR KGNA 061356Z AUTO 00000KT M06/M09 A3003 RMK AO1 SLP186
T10611094





000
SAUS43 KDLH 061257
MTRGNA
METAR KGNA 061256Z AUTO 26003KT M06/M09 A3003 RMK AO1 SLP185
T10561094





000
SAUS43 KDLH 061157
MTRGNA
METAR KGNA 061156Z AUTO 28003KT M04/M08 A3002 RMK AO1 SLP182
T10441083 11028 21050 55001





000
SAUS43 KDLH 061157
MTRGNA
METAR KGNA 061156Z AUTO 28003KT M04/M08 A3002 RMK AO1 SLP182
T10441083 11028 21050 55001





000
SAUS43 KDLH 061057
MTRGNA
METAR KGNA 061056Z AUTO 26003KT M03/M08 A3002 RMK AO1 SLP180
T10331083





000
SAUS43 KDLH 061057
MTRGNA
METAR KGNA 061056Z AUTO 26003KT M03/M08 A3002 RMK AO1 SLP180
T10331083





000
SAUS43 KDLH 060957
MTRGNA
METAR KGNA 060956Z AUTO 26005KT M03/M08 A3002 RMK AO1 SLP181
T10331078





000
SAUS43 KDLH 060857
MTRGNA
METAR KGNA 060856Z AUTO 27005KT M03/M08 A3003 RMK AO1 SLP182
T10331078 58006





000
SAUS43 KDLH 060857
MTRGNA
METAR KGNA 060856Z AUTO 27005KT M03/M08 A3003 RMK AO1 SLP182
T10331078 58006





000
SAUS43 KDLH 060758
MTRGNA
METAR KGNA 060756Z AUTO 26003KT M04/M08 A3004 RMK AO1 SLP186
T10441083





000
SAUS43 KDLH 060657
MTRGNA
METAR KGNA 060656Z AUTO 28004KT M04/M09 A3004 RMK AO1 SLP188
T10441089





000
SAUS43 KDLH 060657
MTRGNA
METAR KGNA 060656Z AUTO 28004KT M04/M09 A3004 RMK AO1 SLP188
T10441089





000
SAUS43 KDLH 060557
MTRGNA
METAR KGNA 060556Z AUTO VRB03KT M05/M09 A3004 RMK AO1 SLP190
T10501094 11028 21050 410281144 58010





000
SAUS43 KDLH 060557
MTRGNA
METAR KGNA 060556Z AUTO VRB03KT M05/M09 A3004 RMK AO1 SLP190
T10501094 11028 21050 410281144 58010





000
SAUS43 KDLH 060457
MTRGNA
METAR KGNA 060456Z AUTO 24006KT M04/M09 A3006 RMK AO1 SLP194
T10391089





000
SAUS43 KDLH 060457
MTRGNA
METAR KGNA 060456Z AUTO 24006KT M04/M09 A3006 RMK AO1 SLP194
T10391089





000
SAUS43 KDLH 060357
MTRGNA
METAR KGNA 060356Z AUTO 26006KT M04/M09 A3007 RMK AO1 SLP198
T10391094





000
SAUS43 KDLH 060357
MTRGNA
METAR KGNA 060356Z AUTO 26006KT M04/M09 A3007 RMK AO1 SLP198
T10391094





000
SAUS43 KDLH 060258
MTRGNA
METAR KGNA 060256Z AUTO 27006KT M03/M10 A3007 RMK AO1 SLP201
T10331100 56014





000
SAUS43 KDLH 060258
MTRGNA
METAR KGNA 060256Z AUTO 27006KT M03/M10 A3007 RMK AO1 SLP201
T10331100 56014





000
SAUS43 KDLH 060157
MTRGNA
METAR KGNA 060156Z AUTO 28004KT M04/M09 A3008 RMK AO1 SLP204
T10391089





000
SAUS43 KDLH 060157
MTRGNA
METAR KGNA 060156Z AUTO 28004KT M04/M09 A3008 RMK AO1 SLP204
T10391089





000
SAUS43 KDLH 060057
MTRGNA
METAR KGNA 060056Z AUTO 30003KT M04/M08 A3010 RMK AO1 SLP210
T10391083





000
SAUS43 KDLH 060057
MTRGNA
METAR KGNA 060056Z AUTO 30003KT M04/M08 A3010 RMK AO1 SLP210
T10391083





000
SAUS43 KDLH 052357
MTRGNA
METAR KGNA 052356Z AUTO 23012KT M03/M08 A3012 RMK AO1 SLP217
T10331078 11028 21061 58022





000
SAUS43 KDLH 052357
MTRGNA
METAR KGNA 052356Z AUTO 23012KT M03/M08 A3012 RMK AO1 SLP217
T10331078 11028 21061 58022





000
SAUS43 KDLH 052257
MTRGNA
METAR KGNA 052256Z AUTO 22015KT M03/M08 A3014 RMK AO1 SLP224
T10331078





000
SAUS43 KDLH 052257
MTRGNA
METAR KGNA 052256Z AUTO 22015KT M03/M08 A3014 RMK AO1 SLP224
T10331078





000
SAUS43 KDLH 052158
MTRGNA
METAR KGNA 052156Z AUTO 23013KT M03/M08 A3016 RMK AO1 SLP233
T10331083





000
SAUS43 KDLH 052058
MTRGNA
METAR KGNA 052056Z AUTO 22012KT M04/M08 A3018 RMK AO1 SLP238
T10391083 56027





000
SAUS43 KDLH 052058
MTRGNA
METAR KGNA 052056Z AUTO 22012KT M04/M08 A3018 RMK AO1 SLP238
T10391083 56027





000
SAUS43 KDLH 051957
MTRGNA
METAR KGNA 051956Z AUTO 26005KT M04/M08 A3021 RMK AO1 SLP246
T10441078





000
SAUS43 KDLH 051857
MTRGNA
METAR KGNA 051856Z AUTO 23006KT M06/M09 A3024 RMK AO1 SLP257
T10561094





000
SAUS43 KDLH 051757
MTRGNA
METAR KGNA 051756Z AUTO 24007KT M06/M11 A3026 RMK AO1 SLP266
T10561111 11056 21144 58012





000
SAUS43 KDLH 051757
MTRGNA
METAR KGNA 051756Z AUTO 24007KT M06/M11 A3026 RMK AO1 SLP266
T10561111 11056 21144 58012





000
SAUS43 KDLH 051657
MTRGNA
METAR KGNA 051656Z AUTO 26003KT M07/M12 A3028 RMK AO1 SLP273
T10671122





000
SAUS43 KDLH 051657
MTRGNA
METAR KGNA 051656Z AUTO 26003KT M07/M12 A3028 RMK AO1 SLP273
T10671122





000
SAUS43 KDLH 051557
MTRGNA
METAR KGNA 051556Z AUTO 21003KT M08/M13 A3030 RMK AO1 SLP280
T10781133





000
SAUS43 KDLH 051458
MTRGNA
METAR KGNA 051456Z AUTO 00000KT M09/M14 A3030 RMK AO1 SLP281
T10891144 50004





000
SAUS43 KDLH 051357
MTRGNA
METAR KGNA 051356Z AUTO 00000KT M13/M17 A3030 RMK AO1 SLP284
T11331167





000
SAUS43 KDLH 051257
MTRGNA
METAR KGNA 051256Z AUTO 00000KT M12/M16 A3029 RMK AO1 SLP278
T11221156





000
SAUS43 KDLH 051257
MTRGNA
METAR KGNA 051256Z AUTO 00000KT M12/M16 A3029 RMK AO1 SLP278
T11221156





000
SAUS43 KDLH 051157
MTRGNA
METAR KGNA 051156Z AUTO 24004KT M12/M16 A3029 RMK AO1 SLP277 70001
T11171156 11083 21139 53017





000
SAUS43 KDLH 051157
MTRGNA
METAR KGNA 051156Z AUTO 24004KT M12/M16 A3029 RMK AO1 SLP277 70001
T11171156 11083 21139 53017





000
SAUS43 KDLH 051057
MTRGNA
METAR KGNA 051056Z AUTO VRB04KT M13/M16 A3026 RMK AO1 SLP267
T11281156





000
SAUS43 KDLH 051057
MTRGNA
METAR KGNA 051056Z AUTO VRB04KT M13/M16 A3026 RMK AO1 SLP267
T11281156





000
SAUS43 KDLH 050957
MTRGNA
METAR KGNA 050956Z AUTO 00000KT M13/M16 A3024 RMK AO1 SLP259
T11281156





000
SAUS43 KDLH 050857
MTRGNA
METAR KGNA 050856Z AUTO 28003KT M10/M14 A3024 RMK AO1 SLP257
T11001144 51020





000
SAUS43 KDLH 050857
MTRGNA
METAR KGNA 050856Z AUTO 28003KT M10/M14 A3024 RMK AO1 SLP257
T11001144 51020





000
SAUS43 KDLH 050758
MTRGNA
METAR KGNA 050756Z AUTO 00000KT M09/M14 A3022 RMK AO1 SLP251
T10891144





000
SAUS43 KDLH 050657
MTRGNA
METAR KGNA 050656Z AUTO 28004KT M08/M14 A3020 RMK AO1 SLP245
T10831139





000
SAUS43 KDLH 050657
MTRGNA
METAR KGNA 050656Z AUTO 28004KT M08/M14 A3020 RMK AO1 SLP245
T10831139





    US Dept of Commerce
    National Oceanic and Atmospheric Administration
    National Weather Service
    1325 East West Highway
    Silver Spring, MD 20910
    Page Author: NWS Internet Services Team
Disclaimer
Information Quality
Credits
Glossary
Privacy Policy
Freedom of Information Act (FOIA)
About Us
Career Opportunities